sensor_id;sensor_type;location;lat;lon;timestamp;P1;durP1;ratioP1;P2;durP2;ratioP2
11238;SDS011;5677;48.488;13.436;2023-03-05T00:01:54;3.37;;;2.60;;
11238;SDS011;5677;48.488;13.436;2023-03-05T00:04:20;2.90;;;2.60;;
11238;SDS011;5677;48.488;13.436;2023-03-05T00:06:47;3.47;;;2.57;;
11238;SDS011;5677;48.488;13.436;2023-03-05T00:09:14;4.30;;;2.83;;
11238;SDS011;5677;48.488;13.436;2023-03-05T00:11:41;2.73;;;2.43;;
11238;SDS011;5677;48.488;13.436;2023-03-05T00:14:08;4.00;;;2.70;;
11238;SDS011;5677;48.488;13.436;2023-03-05T00:16:36;2.70;;;2.50;;
11238;SDS011;5677;48.488;13.436;2023-03-05T00:19:04;2.63;;;2.30;;
11238;SDS011;5677;48.488;13.436;2023-03-05T00:21:32;2.63;;;2.43;;
11238;SDS011;5677;48.488;13.436;2023-03-05T00:24:00;3.10;;;2.43;;
11238;SDS011;5677;48.488;13.436;2023-03-05T00:26:29;2.80;;;2.50;;
11238;SDS011;5677;48.488;13.436;2023-03-05T00:28:58;2.60;;;2.40;;
11238;SDS011;5677;48.488;13.436;2023-03-05T00:31:25;5.60;;;3.30;;
11238;SDS011;5677;48.488;13.436;2023-03-05T00:33:57;2.40;;;2.20;;
11238;SDS011;5677;48.488;13.436;2023-03-05T00:36:25;3.47;;;2.47;;
11238;SDS011;5677;48.488;13.436;2023-03-05T00:38:53;3.20;;;2.50;;
11238;SDS011;5677;48.488;13.436;2023-03-05T00:41:20;2.67;;;2.47;;
11238;SDS011;5677;48.488;13.436;2023-03-05T00:43:47;2.73;;;2.50;;
11238;SDS011;5677;48.488;13.436;2023-03-05T00:46:14;2.30;;;2.10;;
11238;SDS011;5677;48.488;13.436;2023-03-05T00:48:41;2.70;;;2.30;;
11238;SDS011;5677;48.488;13.436;2023-03-05T00:51:09;2.73;;;2.20;;
11238;SDS011;5677;48.488;13.436;2023-03-05T00:53:36;4.33;;;2.60;;
11238;SDS011;5677;48.488;13.436;2023-03-05T00:56:03;2.73;;;2.23;;
11238;SDS011;5677;48.488;13.436;2023-03-05T00:58:31;2.80;;;2.20;;
11238;SDS011;5677;48.488;13.436;2023-03-05T01:00:57;2.60;;;2.40;;
11238;SDS011;5677;48.488;13.436;2023-03-05T01:03:26;2.93;;;2.40;;
11238;SDS011;5677;48.488;13.436;2023-03-05T01:05:54;2.43;;;2.23;;
11238;SDS011;5677;48.488;13.436;2023-03-05T01:08:22;2.93;;;2.23;;
11238;SDS011;5677;48.488;13.436;2023-03-05T01:10:49;2.70;;;2.50;;
11238;SDS011;5677;48.488;13.436;2023-03-05T01:13:16;4.50;;;2.50;;
11238;SDS011;5677;48.488;13.436;2023-03-05T01:15:43;2.53;;;2.17;;
11238;SDS011;5677;48.488;13.436;2023-03-05T01:18:11;2.87;;;2.50;;
11238;SDS011;5677;48.488;13.436;2023-03-05T01:20:38;2.80;;;2.43;;
11238;SDS011;5677;48.488;13.436;2023-03-05T01:23:05;3.37;;;2.20;;
11238;SDS011;5677;48.488;13.436;2023-03-05T01:25:33;3.70;;;2.23;;
11238;SDS011;5677;48.488;13.436;2023-03-05T01:28:00;2.57;;;2.10;;
11238;SDS011;5677;48.488;13.436;2023-03-05T01:30:27;2.60;;;2.40;;
11238;SDS011;5677;48.488;13.436;2023-03-05T01:32:53;3.17;;;2.40;;
11238;SDS011;5677;48.488;13.436;2023-03-05T01:35:21;2.50;;;2.13;;
11238;SDS011;5677;48.488;13.436;2023-03-05T01:37:50;3.70;;;2.60;;
11238;SDS011;5677;48.488;13.436;2023-03-05T01:40:18;4.50;;;2.40;;
11238;SDS011;5677;48.488;13.436;2023-03-05T01:42:48;3.97;;;2.47;;
11238;SDS011;5677;48.488;13.436;2023-03-05T01:45:20;3.33;;;2.37;;
11238;SDS011;5677;48.488;13.436;2023-03-05T01:47:47;3.10;;;2.40;;
11238;SDS011;5677;48.488;13.436;2023-03-05T01:50:15;2.27;;;2.07;;
11238;SDS011;5677;48.488;13.436;2023-03-05T01:52:45;2.37;;;2.10;;
11238;SDS011;5677;48.488;13.436;2023-03-05T01:55:17;2.30;;;2.10;;
11238;SDS011;5677;48.488;13.436;2023-03-05T01:57:49;2.37;;;2.10;;
11238;SDS011;5677;48.488;13.436;2023-03-05T02:00:19;3.30;;;1.90;;
11238;SDS011;5677;48.488;13.436;2023-03-05T02:02:50;3.10;;;2.37;;
11238;SDS011;5677;48.488;13.436;2023-03-05T02:05:18;2.87;;;2.10;;
11238;SDS011;5677;48.488;13.436;2023-03-05T02:07:51;3.70;;;2.43;;
11238;SDS011;5677;48.488;13.436;2023-03-05T02:10:19;2.90;;;2.40;;
11238;SDS011;5677;48.488;13.436;2023-03-05T02:12:49;2.33;;;2.13;;
11238;SDS011;5677;48.488;13.436;2023-03-05T02:15:18;2.50;;;2.30;;
11238;SDS011;5677;48.488;13.436;2023-03-05T02:17:45;2.30;;;2.00;;
11238;SDS011;5677;48.488;13.436;2023-03-05T02:20:14;2.37;;;2.03;;
11238;SDS011;5677;48.488;13.436;2023-03-05T02:22:45;2.30;;;2.00;;
11238;SDS011;5677;48.488;13.436;2023-03-05T02:25:13;3.90;;;2.47;;
11238;SDS011;5677;48.488;13.436;2023-03-05T02:27:43;2.80;;;2.43;;
11238;SDS011;5677;48.488;13.436;2023-03-05T02:30:16;3.63;;;2.70;;
11238;SDS011;5677;48.488;13.436;2023-03-05T02:32:44;3.07;;;2.13;;
11238;SDS011;5677;48.488;13.436;2023-03-05T02:35:10;2.17;;;1.97;;
11238;SDS011;5677;48.488;13.436;2023-03-05T02:37:37;2.47;;;2.27;;
11238;SDS011;5677;48.488;13.436;2023-03-05T02:40:07;2.33;;;2.13;;
11238;SDS011;5677;48.488;13.436;2023-03-05T02:42:34;2.93;;;2.47;;
11238;SDS011;5677;48.488;13.436;2023-03-05T02:45:01;2.83;;;2.47;;
11238;SDS011;5677;48.488;13.436;2023-03-05T02:47:28;2.30;;;2.10;;
11238;SDS011;5677;48.488;13.436;2023-03-05T02:49:55;2.90;;;2.20;;
11238;SDS011;5677;48.488;13.436;2023-03-05T02:52:22;2.50;;;2.30;;
11238;SDS011;5677;48.488;13.436;2023-03-05T02:54:49;2.87;;;2.27;;
11238;SDS011;5677;48.488;13.436;2023-03-05T02:57:17;2.60;;;2.40;;
11238;SDS011;5677;48.488;13.436;2023-03-05T02:59:44;2.40;;;2.20;;
11238;SDS011;5677;48.488;13.436;2023-03-05T03:02:11;3.07;;;2.10;;
11238;SDS011;5677;48.488;13.436;2023-03-05T03:04:38;2.37;;;2.17;;
11238;SDS011;5677;48.488;13.436;2023-03-05T03:07:05;2.97;;;2.00;;
11238;SDS011;5677;48.488;13.436;2023-03-05T03:09:32;2.63;;;1.90;;
11238;SDS011;5677;48.488;13.436;2023-03-05T03:12:00;2.67;;;2.00;;
11238;SDS011;5677;48.488;13.436;2023-03-05T03:14:30;2.30;;;2.07;;
11238;SDS011;5677;48.488;13.436;2023-03-05T03:16:57;2.40;;;2.10;;
11238;SDS011;5677;48.488;13.436;2023-03-05T03:19:24;2.53;;;2.20;;
11238;SDS011;5677;48.488;13.436;2023-03-05T03:21:51;2.40;;;2.03;;
11238;SDS011;5677;48.488;13.436;2023-03-05T03:24:19;2.07;;;1.87;;
11238;SDS011;5677;48.488;13.436;2023-03-05T03:26:45;2.37;;;2.17;;
11238;SDS011;5677;48.488;13.436;2023-03-05T03:29:13;2.30;;;2.10;;
11238;SDS011;5677;48.488;13.436;2023-03-05T03:31:41;2.93;;;2.27;;
11238;SDS011;5677;48.488;13.436;2023-03-05T03:34:09;2.67;;;2.20;;
11238;SDS011;5677;48.488;13.436;2023-03-05T03:36:36;3.00;;;2.20;;
11238;SDS011;5677;48.488;13.436;2023-03-05T03:39:03;3.30;;;2.00;;
11238;SDS011;5677;48.488;13.436;2023-03-05T03:41:30;2.30;;;2.10;;
11238;SDS011;5677;48.488;13.436;2023-03-05T03:43:57;2.13;;;1.90;;
11238;SDS011;5677;48.488;13.436;2023-03-05T03:46:24;2.43;;;2.23;;
11238;SDS011;5677;48.488;13.436;2023-03-05T03:48:52;2.47;;;2.27;;
11238;SDS011;5677;48.488;13.436;2023-03-05T03:51:18;2.43;;;2.20;;
11238;SDS011;5677;48.488;13.436;2023-03-05T03:53:45;2.30;;;2.03;;
11238;SDS011;5677;48.488;13.436;2023-03-05T03:56:12;2.47;;;2.27;;
11238;SDS011;5677;48.488;13.436;2023-03-05T03:58:39;2.77;;;1.97;;
11238;SDS011;5677;48.488;13.436;2023-03-05T04:01:06;3.37;;;2.10;;
11238;SDS011;5677;48.488;13.436;2023-03-05T04:03:33;2.20;;;1.97;;
11238;SDS011;5677;48.488;13.436;2023-03-05T04:06:01;2.90;;;2.43;;
11238;SDS011;5677;48.488;13.436;2023-03-05T04:08:28;2.47;;;2.00;;
11238;SDS011;5677;48.488;13.436;2023-03-05T04:10:55;2.80;;;2.17;;
11238;SDS011;5677;48.488;13.436;2023-03-05T04:13:21;2.87;;;2.30;;
11238;SDS011;5677;48.488;13.436;2023-03-05T04:15:48;2.60;;;2.10;;
11238;SDS011;5677;48.488;13.436;2023-03-05T04:18:15;2.77;;;2.03;;
11238;SDS011;5677;48.488;13.436;2023-03-05T04:20:42;2.60;;;2.40;;
11238;SDS011;5677;48.488;13.436;2023-03-05T04:23:10;5.53;;;2.70;;
11238;SDS011;5677;48.488;13.436;2023-03-05T04:25:36;4.13;;;2.00;;
11238;SDS011;5677;48.488;13.436;2023-03-05T04:28:03;2.77;;;2.53;;
11238;SDS011;5677;48.488;13.436;2023-03-05T04:30:30;2.37;;;1.90;;
11238;SDS011;5677;48.488;13.436;2023-03-05T04:32:57;3.00;;;2.10;;
11238;SDS011;5677;48.488;13.436;2023-03-05T04:35:24;12.13;;;9.07;;
11238;SDS011;5677;48.488;13.436;2023-03-05T04:37:50;3.03;;;2.70;;
11238;SDS011;5677;48.488;13.436;2023-03-05T04:40:19;4.47;;;3.10;;
11238;SDS011;5677;48.488;13.436;2023-03-05T04:42:46;12.23;;;7.20;;
11238;SDS011;5677;48.488;13.436;2023-03-05T04:45:12;3.73;;;3.43;;
11238;SDS011;5677;48.488;13.436;2023-03-05T04:47:41;5.93;;;4.90;;
11238;SDS011;5677;48.488;13.436;2023-03-05T04:50:08;6.07;;;4.70;;
11238;SDS011;5677;48.488;13.436;2023-03-05T04:52:36;5.73;;;4.83;;
11238;SDS011;5677;48.488;13.436;2023-03-05T04:55:04;6.50;;;4.50;;
11238;SDS011;5677;48.488;13.436;2023-03-05T04:57:33;6.97;;;4.30;;
11238;SDS011;5677;48.488;13.436;2023-03-05T05:00:00;8.07;;;4.67;;
11238;SDS011;5677;48.488;13.436;2023-03-05T05:02:30;7.90;;;5.00;;
11238;SDS011;5677;48.488;13.436;2023-03-05T05:04:57;5.47;;;4.63;;
11238;SDS011;5677;48.488;13.436;2023-03-05T05:07:24;9.80;;;4.40;;
11238;SDS011;5677;48.488;13.436;2023-03-05T05:09:51;6.10;;;4.40;;
11238;SDS011;5677;48.488;13.436;2023-03-05T05:12:18;7.70;;;4.40;;
11238;SDS011;5677;48.488;13.436;2023-03-05T05:14:46;5.07;;;4.27;;
11238;SDS011;5677;48.488;13.436;2023-03-05T05:17:12;4.50;;;3.77;;
11238;SDS011;5677;48.488;13.436;2023-03-05T05:19:39;4.50;;;3.80;;
11238;SDS011;5677;48.488;13.436;2023-03-05T05:22:06;4.30;;;3.90;;
11238;SDS011;5677;48.488;13.436;2023-03-05T05:24:32;4.60;;;3.80;;
11238;SDS011;5677;48.488;13.436;2023-03-05T05:26:59;4.10;;;3.60;;
11238;SDS011;5677;48.488;13.436;2023-03-05T05:29:26;5.43;;;3.97;;
11238;SDS011;5677;48.488;13.436;2023-03-05T05:31:54;5.07;;;3.67;;
11238;SDS011;5677;48.488;13.436;2023-03-05T05:34:21;5.03;;;3.67;;
11238;SDS011;5677;48.488;13.436;2023-03-05T05:36:49;6.33;;;4.90;;
11238;SDS011;5677;48.488;13.436;2023-03-05T05:39:15;5.60;;;4.50;;
11238;SDS011;5677;48.488;13.436;2023-03-05T05:41:42;6.73;;;4.47;;
11238;SDS011;5677;48.488;13.436;2023-03-05T05:44:09;5.40;;;4.90;;
11238;SDS011;5677;48.488;13.436;2023-03-05T05:46:36;5.93;;;4.70;;
11238;SDS011;5677;48.488;13.436;2023-03-05T05:49:04;7.23;;;4.47;;
11238;SDS011;5677;48.488;13.436;2023-03-05T05:51:31;6.03;;;4.87;;
11238;SDS011;5677;48.488;13.436;2023-03-05T05:53:57;5.60;;;4.97;;
11238;SDS011;5677;48.488;13.436;2023-03-05T05:56:24;5.77;;;4.63;;
11238;SDS011;5677;48.488;13.436;2023-03-05T05:58:51;5.57;;;4.90;;
11238;SDS011;5677;48.488;13.436;2023-03-05T06:01:19;4.97;;;4.37;;
11238;SDS011;5677;48.488;13.436;2023-03-05T06:03:48;5.13;;;4.33;;
11238;SDS011;5677;48.488;13.436;2023-03-05T06:06:17;4.83;;;4.23;;
11238;SDS011;5677;48.488;13.436;2023-03-05T06:08:46;4.90;;;4.17;;
11238;SDS011;5677;48.488;13.436;2023-03-05T06:11:13;4.80;;;4.00;;
11238;SDS011;5677;48.488;13.436;2023-03-05T06:13:40;5.03;;;4.47;;
11238;SDS011;5677;48.488;13.436;2023-03-05T06:16:10;4.60;;;4.10;;
11238;SDS011;5677;48.488;13.436;2023-03-05T06:18:38;5.03;;;4.23;;
11238;SDS011;5677;48.488;13.436;2023-03-05T06:21:06;4.40;;;3.70;;
11238;SDS011;5677;48.488;13.436;2023-03-05T06:23:35;5.47;;;4.73;;
11238;SDS011;5677;48.488;13.436;2023-03-05T06:26:03;5.40;;;4.67;;
11238;SDS011;5677;48.488;13.436;2023-03-05T06:28:32;5.37;;;4.40;;
11238;SDS011;5677;48.488;13.436;2023-03-05T06:31:00;8.00;;;4.90;;
11238;SDS011;5677;48.488;13.436;2023-03-05T06:33:27;6.63;;;4.53;;
11238;SDS011;5677;48.488;13.436;2023-03-05T06:35:54;8.93;;;4.63;;
11238;SDS011;5677;48.488;13.436;2023-03-05T06:38:21;5.43;;;4.40;;
11238;SDS011;5677;48.488;13.436;2023-03-05T06:40:49;4.80;;;4.00;;
11238;SDS011;5677;48.488;13.436;2023-03-05T06:43:16;5.20;;;4.37;;
11238;SDS011;5677;48.488;13.436;2023-03-05T06:45:43;5.67;;;4.10;;
11238;SDS011;5677;48.488;13.436;2023-03-05T06:48:09;5.57;;;4.30;;
11238;SDS011;5677;48.488;13.436;2023-03-05T06:50:36;7.10;;;4.43;;
11238;SDS011;5677;48.488;13.436;2023-03-05T06:53:03;5.50;;;4.33;;
11238;SDS011;5677;48.488;13.436;2023-03-05T06:55:30;4.73;;;3.70;;
11238;SDS011;5677;48.488;13.436;2023-03-05T06:58:04;6.00;;;4.10;;
11238;SDS011;5677;48.488;13.436;2023-03-05T07:00:32;6.50;;;4.40;;
11238;SDS011;5677;48.488;13.436;2023-03-05T07:02:58;5.63;;;4.33;;
11238;SDS011;5677;48.488;13.436;2023-03-05T07:05:25;5.43;;;4.57;;
11238;SDS011;5677;48.488;13.436;2023-03-05T07:07:52;5.40;;;4.43;;
11238;SDS011;5677;48.488;13.436;2023-03-05T07:10:19;12.57;;;8.30;;
11238;SDS011;5677;48.488;13.436;2023-03-05T07:12:45;8.13;;;6.10;;
11238;SDS011;5677;48.488;13.436;2023-03-05T07:15:13;7.67;;;5.63;;
11238;SDS011;5677;48.488;13.436;2023-03-05T07:17:40;7.70;;;5.23;;
11238;SDS011;5677;48.488;13.436;2023-03-05T07:20:08;6.87;;;5.43;;
11238;SDS011;5677;48.488;13.436;2023-03-05T07:22:35;6.93;;;5.57;;
11238;SDS011;5677;48.488;13.436;2023-03-05T07:25:02;9.83;;;6.67;;
11238;SDS011;5677;48.488;13.436;2023-03-05T07:27:31;8.33;;;5.53;;
11238;SDS011;5677;48.488;13.436;2023-03-05T07:30:00;8.37;;;5.73;;
11238;SDS011;5677;48.488;13.436;2023-03-05T07:32:28;10.60;;;5.70;;
11238;SDS011;5677;48.488;13.436;2023-03-05T07:34:55;8.93;;;5.67;;
11238;SDS011;5677;48.488;13.436;2023-03-05T07:37:22;8.23;;;5.73;;
11238;SDS011;5677;48.488;13.436;2023-03-05T07:39:48;9.10;;;6.20;;
11238;SDS011;5677;48.488;13.436;2023-03-05T07:42:15;10.03;;;6.33;;
11238;SDS011;5677;48.488;13.436;2023-03-05T07:44:42;8.63;;;6.07;;
11238;SDS011;5677;48.488;13.436;2023-03-05T07:47:09;18.33;;;11.67;;
11238;SDS011;5677;48.488;13.436;2023-03-05T07:49:37;9.37;;;6.37;;
11238;SDS011;5677;48.488;13.436;2023-03-05T07:52:05;12.10;;;6.83;;
11238;SDS011;5677;48.488;13.436;2023-03-05T07:54:32;14.07;;;7.73;;
11238;SDS011;5677;48.488;13.436;2023-03-05T07:57:01;13.00;;;6.33;;
11238;SDS011;5677;48.488;13.436;2023-03-05T07:59:28;11.97;;;6.73;;
11238;SDS011;5677;48.488;13.436;2023-03-05T08:01:55;11.00;;;7.23;;
11238;SDS011;5677;48.488;13.436;2023-03-05T08:04:22;8.80;;;6.27;;
11238;SDS011;5677;48.488;13.436;2023-03-05T08:06:50;8.80;;;6.40;;
11238;SDS011;5677;48.488;13.436;2023-03-05T08:09:17;10.70;;;6.97;;
11238;SDS011;5677;48.488;13.436;2023-03-05T08:11:44;9.07;;;6.13;;
11238;SDS011;5677;48.488;13.436;2023-03-05T08:14:11;10.90;;;6.80;;
11238;SDS011;5677;48.488;13.436;2023-03-05T08:16:38;9.03;;;6.47;;
11238;SDS011;5677;48.488;13.436;2023-03-05T08:19:06;10.23;;;5.77;;
11238;SDS011;5677;48.488;13.436;2023-03-05T08:21:33;10.60;;;6.90;;
11238;SDS011;5677;48.488;13.436;2023-03-05T08:24:03;13.87;;;8.30;;
11238;SDS011;5677;48.488;13.436;2023-03-05T08:26:32;15.03;;;8.70;;
11238;SDS011;5677;48.488;13.436;2023-03-05T08:29:01;13.70;;;9.57;;
11238;SDS011;5677;48.488;13.436;2023-03-05T08:31:29;12.70;;;9.40;;
11238;SDS011;5677;48.488;13.436;2023-03-05T08:33:57;13.87;;;9.13;;
11238;SDS011;5677;48.488;13.436;2023-03-05T08:36:26;11.83;;;8.50;;
11238;SDS011;5677;48.488;13.436;2023-03-05T08:38:53;12.63;;;8.23;;
11238;SDS011;5677;48.488;13.436;2023-03-05T08:41:22;16.83;;;8.37;;
11238;SDS011;5677;48.488;13.436;2023-03-05T08:43:48;16.27;;;9.73;;
11238;SDS011;5677;48.488;13.436;2023-03-05T08:46:16;11.10;;;8.20;;
11238;SDS011;5677;48.488;13.436;2023-03-05T08:48:43;11.87;;;8.07;;
11238;SDS011;5677;48.488;13.436;2023-03-05T08:51:10;14.67;;;8.37;;
11238;SDS011;5677;48.488;13.436;2023-03-05T08:53:39;12.60;;;7.87;;
11238;SDS011;5677;48.488;13.436;2023-03-05T08:56:06;11.17;;;7.40;;
11238;SDS011;5677;48.488;13.436;2023-03-05T08:58:34;11.60;;;7.13;;
11238;SDS011;5677;48.488;13.436;2023-03-05T09:01:02;13.60;;;7.63;;
11238;SDS011;5677;48.488;13.436;2023-03-05T09:03:29;9.23;;;7.13;;
11238;SDS011;5677;48.488;13.436;2023-03-05T09:05:57;12.43;;;7.00;;
11238;SDS011;5677;48.488;13.436;2023-03-05T09:08:25;10.33;;;6.53;;
11238;SDS011;5677;48.488;13.436;2023-03-05T09:10:53;9.93;;;6.70;;
11238;SDS011;5677;48.488;13.436;2023-03-05T09:13:20;9.43;;;6.37;;
11238;SDS011;5677;48.488;13.436;2023-03-05T09:15:53;11.63;;;7.00;;
11238;SDS011;5677;48.488;13.436;2023-03-05T09:18:20;10.50;;;7.17;;
11238;SDS011;5677;48.488;13.436;2023-03-05T09:20:47;11.13;;;7.10;;
11238;SDS011;5677;48.488;13.436;2023-03-05T09:23:14;10.77;;;7.33;;
11238;SDS011;5677;48.488;13.436;2023-03-05T09:25:42;12.67;;;7.77;;
11238;SDS011;5677;48.488;13.436;2023-03-05T09:28:09;14.53;;;6.90;;
11238;SDS011;5677;48.488;13.436;2023-03-05T09:30:36;9.50;;;6.87;;
11238;SDS011;5677;48.488;13.436;2023-03-05T09:33:05;12.57;;;6.80;;
11238;SDS011;5677;48.488;13.436;2023-03-05T09:35:33;13.40;;;6.83;;
11238;SDS011;5677;48.488;13.436;2023-03-05T09:37:59;12.47;;;7.10;;
11238;SDS011;5677;48.488;13.436;2023-03-05T09:40:28;13.83;;;7.67;;
11238;SDS011;5677;48.488;13.436;2023-03-05T09:43:04;12.20;;;6.77;;
11238;SDS011;5677;48.488;13.436;2023-03-05T09:45:42;13.57;;;6.90;;
11238;SDS011;5677;48.488;13.436;2023-03-05T09:48:23;10.37;;;7.07;;
11238;SDS011;5677;48.488;13.436;2023-03-05T09:50:53;14.00;;;7.33;;
11238;SDS011;5677;48.488;13.436;2023-03-05T09:53:29;10.30;;;6.43;;
11238;SDS011;5677;48.488;13.436;2023-03-05T09:56:01;13.03;;;7.20;;
11238;SDS011;5677;48.488;13.436;2023-03-05T09:58:36;8.27;;;5.97;;
11238;SDS011;5677;48.488;13.436;2023-03-05T10:01:05;10.93;;;6.30;;
11238;SDS011;5677;48.488;13.436;2023-03-05T10:03:39;10.33;;;6.90;;
11238;SDS011;5677;48.488;13.436;2023-03-05T10:06:16;9.83;;;6.20;;
11238;SDS011;5677;48.488;13.436;2023-03-05T10:08:50;8.33;;;5.93;;
11238;SDS011;5677;48.488;13.436;2023-03-05T10:11:25;15.03;;;6.57;;
11238;SDS011;5677;48.488;13.436;2023-03-05T10:14:23;8.93;;;6.10;;
11238;SDS011;5677;48.488;13.436;2023-03-05T10:16:58;10.33;;;6.17;;
11238;SDS011;5677;48.488;13.436;2023-03-05T10:19:52;7.77;;;5.30;;
11238;SDS011;5677;48.488;13.436;2023-03-05T10:22:29;9.00;;;5.70;;
11238;SDS011;5677;48.488;13.436;2023-03-05T10:25:02;9.00;;;5.30;;
11238;SDS011;5677;48.488;13.436;2023-03-05T10:27:41;8.57;;;5.43;;
11238;SDS011;5677;48.488;13.436;2023-03-05T10:30:19;7.67;;;5.73;;
11238;SDS011;5677;48.488;13.436;2023-03-05T10:32:53;8.73;;;5.77;;
11238;SDS011;5677;48.488;13.436;2023-03-05T10:35:32;10.03;;;5.70;;
11238;SDS011;5677;48.488;13.436;2023-03-05T10:38:25;7.80;;;5.60;;
11238;SDS011;5677;48.488;13.436;2023-03-05T10:41:22;8.10;;;5.57;;
11238;SDS011;5677;48.488;13.436;2023-03-05T10:43:54;7.80;;;5.33;;
11238;SDS011;5677;48.488;13.436;2023-03-05T10:46:28;6.37;;;5.23;;
11238;SDS011;5677;48.488;13.436;2023-03-05T10:49:00;7.47;;;5.10;;
11238;SDS011;5677;48.488;13.436;2023-03-05T10:51:38;8.70;;;4.93;;
11238;SDS011;5677;48.488;13.436;2023-03-05T10:54:10;7.73;;;5.40;;
11238;SDS011;5677;48.488;13.436;2023-03-05T10:56:43;10.13;;;5.60;;
11238;SDS011;5677;48.488;13.436;2023-03-05T10:59:09;9.53;;;5.93;;
11238;SDS011;5677;48.488;13.436;2023-03-05T11:01:36;9.83;;;5.30;;
11238;SDS011;5677;48.488;13.436;2023-03-05T11:04:03;9.53;;;5.47;;
11238;SDS011;5677;48.488;13.436;2023-03-05T11:06:32;7.80;;;5.30;;
11238;SDS011;5677;48.488;13.436;2023-03-05T11:09:15;8.47;;;5.10;;
11238;SDS011;5677;48.488;13.436;2023-03-05T11:12:01;8.30;;;5.07;;
11238;SDS011;5677;48.488;13.436;2023-03-05T11:14:32;9.20;;;4.90;;
11238;SDS011;5677;48.488;13.436;2023-03-05T11:17:03;8.70;;;4.87;;
11238;SDS011;5677;48.488;13.436;2023-03-05T11:19:51;9.13;;;4.97;;
11238;SDS011;5677;48.488;13.436;2023-03-05T11:22:20;6.10;;;4.30;;
11238;SDS011;5677;48.488;13.436;2023-03-05T11:25:01;11.97;;;5.03;;
11238;SDS011;5677;48.488;13.436;2023-03-05T11:27:32;13.53;;;6.17;;
11238;SDS011;5677;48.488;13.436;2023-03-05T11:30:02;20.33;;;8.03;;
11238;SDS011;5677;48.488;13.436;2023-03-05T11:32:29;19.27;;;8.37;;
11238;SDS011;5677;48.488;13.436;2023-03-05T11:34:56;17.57;;;8.47;;
11238;SDS011;5677;48.488;13.436;2023-03-05T11:37:25;23.63;;;8.97;;
11238;SDS011;5677;48.488;13.436;2023-03-05T11:40:13;16.17;;;8.17;;
11238;SDS011;5677;48.488;13.436;2023-03-05T11:42:44;19.97;;;9.20;;
11238;SDS011;5677;48.488;13.436;2023-03-05T11:45:19;25.40;;;9.43;;
11238;SDS011;5677;48.488;13.436;2023-03-05T11:47:47;20.80;;;8.43;;
11238;SDS011;5677;48.488;13.436;2023-03-05T11:50:18;26.13;;;9.20;;
11238;SDS011;5677;48.488;13.436;2023-03-05T11:52:49;19.37;;;8.30;;
11238;SDS011;5677;48.488;13.436;2023-03-05T11:55:18;18.50;;;9.07;;
11238;SDS011;5677;48.488;13.436;2023-03-05T11:57:47;21.00;;;8.53;;
11238;SDS011;5677;48.488;13.436;2023-03-05T12:00:18;15.37;;;7.87;;
11238;SDS011;5677;48.488;13.436;2023-03-05T12:02:52;16.50;;;7.23;;
11238;SDS011;5677;48.488;13.436;2023-03-05T12:05:21;14.30;;;7.23;;
11238;SDS011;5677;48.488;13.436;2023-03-05T12:07:50;14.23;;;6.80;;
11238;SDS011;5677;48.488;13.436;2023-03-05T12:10:21;15.90;;;7.23;;
11238;SDS011;5677;48.488;13.436;2023-03-05T12:12:50;15.23;;;6.43;;
11238;SDS011;5677;48.488;13.436;2023-03-05T12:15:30;15.80;;;6.73;;
11238;SDS011;5677;48.488;13.436;2023-03-05T12:18:14;12.93;;;6.17;;
11238;SDS011;5677;48.488;13.436;2023-03-05T12:20:47;13.37;;;6.07;;
11238;SDS011;5677;48.488;13.436;2023-03-05T12:23:22;15.57;;;6.53;;
11238;SDS011;5677;48.488;13.436;2023-03-05T12:25:52;14.50;;;6.57;;
11238;SDS011;5677;48.488;13.436;2023-03-05T12:31:25;12.23;;;6.47;;
11238;SDS011;5677;48.488;13.436;2023-03-05T12:40:25;12.37;;;5.13;;
11238;SDS011;5677;48.488;13.436;2023-03-05T12:42:56;9.57;;;5.10;;
11238;SDS011;5677;48.488;13.436;2023-03-05T12:45:32;8.57;;;4.73;;
11238;SDS011;5677;48.488;13.436;2023-03-05T12:51:11;8.87;;;4.27;;
11238;SDS011;5677;48.488;13.436;2023-03-05T12:53:39;7.67;;;4.17;;
11238;SDS011;5677;48.488;13.436;2023-03-05T12:56:13;19.33;;;5.53;;
11238;SDS011;5677;48.488;13.436;2023-03-05T12:58:44;10.77;;;5.30;;
11238;SDS011;5677;48.488;13.436;2023-03-05T13:01:18;9.63;;;4.77;;
11238;SDS011;5677;48.488;13.436;2023-03-05T13:03:59;15.63;;;5.67;;
11238;SDS011;5677;48.488;13.436;2023-03-05T13:06:35;12.27;;;5.57;;
11238;SDS011;5677;48.488;13.436;2023-03-05T13:09:06;11.30;;;4.37;;
11238;SDS011;5677;48.488;13.436;2023-03-05T13:11:42;11.17;;;5.43;;
11238;SDS011;5677;48.488;13.436;2023-03-05T13:14:24;12.17;;;5.60;;
11238;SDS011;5677;48.488;13.436;2023-03-05T13:16:54;11.80;;;5.00;;
11238;SDS011;5677;48.488;13.436;2023-03-05T13:19:21;10.60;;;4.87;;
11238;SDS011;5677;48.488;13.436;2023-03-05T13:21:55;10.60;;;4.87;;
11238;SDS011;5677;48.488;13.436;2023-03-05T13:24:23;8.43;;;4.67;;
11238;SDS011;5677;48.488;13.436;2023-03-05T13:26:52;10.63;;;4.70;;
11238;SDS011;5677;48.488;13.436;2023-03-05T13:29:19;11.03;;;4.90;;
11238;SDS011;5677;48.488;13.436;2023-03-05T13:31:48;9.13;;;4.70;;
11238;SDS011;5677;48.488;13.436;2023-03-05T13:34:17;9.90;;;4.33;;
11238;SDS011;5677;48.488;13.436;2023-03-05T13:36:48;10.60;;;4.70;;
11238;SDS011;5677;48.488;13.436;2023-03-05T13:39:21;12.63;;;4.83;;
11238;SDS011;5677;48.488;13.436;2023-03-05T13:41:59;10.53;;;4.90;;
11238;SDS011;5677;48.488;13.436;2023-03-05T13:44:28;9.20;;;4.60;;
11238;SDS011;5677;48.488;13.436;2023-03-05T13:47:05;6.03;;;3.70;;
11238;SDS011;5677;48.488;13.436;2023-03-05T13:49:40;7.10;;;4.40;;
11238;SDS011;5677;48.488;13.436;2023-03-05T13:52:07;9.07;;;4.47;;
11238;SDS011;5677;48.488;13.436;2023-03-05T13:54:33;7.97;;;4.07;;
11238;SDS011;5677;48.488;13.436;2023-03-05T13:57:03;8.37;;;3.97;;
11238;SDS011;5677;48.488;13.436;2023-03-05T13:59:31;11.97;;;3.80;;
11238;SDS011;5677;48.488;13.436;2023-03-05T14:02:01;11.37;;;4.17;;
11238;SDS011;5677;48.488;13.436;2023-03-05T14:04:30;12.77;;;4.60;;
11238;SDS011;5677;48.488;13.436;2023-03-05T14:07:02;13.03;;;4.57;;
11238;SDS011;5677;48.488;13.436;2023-03-05T14:09:40;12.80;;;5.00;;
11238;SDS011;5677;48.488;13.436;2023-03-05T14:12:20;12.77;;;4.47;;
11238;SDS011;5677;48.488;13.436;2023-03-05T14:14:51;16.83;;;4.53;;
11238;SDS011;5677;48.488;13.436;2023-03-05T14:17:31;12.63;;;4.50;;
11238;SDS011;5677;48.488;13.436;2023-03-05T14:20:06;14.67;;;5.37;;
11238;SDS011;5677;48.488;13.436;2023-03-05T14:22:44;13.27;;;5.23;;
11238;SDS011;5677;48.488;13.436;2023-03-05T14:25:24;16.20;;;4.60;;
11238;SDS011;5677;48.488;13.436;2023-03-05T14:28:00;10.93;;;4.50;;
11238;SDS011;5677;48.488;13.436;2023-03-05T14:30:28;20.00;;;4.70;;
11238;SDS011;5677;48.488;13.436;2023-03-05T14:32:55;14.50;;;5.07;;
11238;SDS011;5677;48.488;13.436;2023-03-05T14:35:25;14.53;;;4.27;;
11238;SDS011;5677;48.488;13.436;2023-03-05T14:37:54;25.53;;;5.23;;
11238;SDS011;5677;48.488;13.436;2023-03-05T14:40:25;18.83;;;4.80;;
11238;SDS011;5677;48.488;13.436;2023-03-05T14:42:54;15.27;;;4.60;;
11238;SDS011;5677;48.488;13.436;2023-03-05T14:45:23;17.03;;;4.30;;
11238;SDS011;5677;48.488;13.436;2023-03-05T14:47:52;18.90;;;5.37;;
11238;SDS011;5677;48.488;13.436;2023-03-05T14:50:21;15.33;;;5.10;;
11238;SDS011;5677;48.488;13.436;2023-03-05T14:52:50;15.27;;;4.63;;
11238;SDS011;5677;48.488;13.436;2023-03-05T14:55:19;12.10;;;4.87;;
11238;SDS011;5677;48.488;13.436;2023-03-05T14:57:47;11.60;;;4.30;;
11238;SDS011;5677;48.488;13.436;2023-03-05T15:00:15;12.17;;;4.37;;
11238;SDS011;5677;48.488;13.436;2023-03-05T15:02:45;13.97;;;4.53;;
11238;SDS011;5677;48.488;13.436;2023-03-05T15:05:12;11.47;;;4.20;;
11238;SDS011;5677;48.488;13.436;2023-03-05T15:07:39;10.03;;;4.70;;
11238;SDS011;5677;48.488;13.436;2023-03-05T15:10:06;9.87;;;3.97;;